createdAt,value
2023-02-24T00:05:03.996Z,3.63
2023-02-24T00:11:14.456Z,3.80
2023-02-24T00:17:17.075Z,4.00
2023-02-24T00:23:18.976Z,3.65
2023-02-24T00:29:20.968Z,4.00
2023-02-24T00:35:22.712Z,4.45
2023-02-24T00:41:30.400Z,4.07
2023-02-24T00:47:33.741Z,3.35
2023-02-24T00:53:35.928Z,3.25
2023-02-24T00:59:38.419Z,3.65
2023-02-24T01:05:40.269Z,3.42
2023-02-24T01:12:02.039Z,3.65
2023-02-24T01:18:04.007Z,3.95
2023-02-24T01:24:06.395Z,3.42
2023-02-24T01:30:16.105Z,3.30
2023-02-24T01:36:21.324Z,4.47
2023-02-24T01:42:24.046Z,3.97
2023-02-24T01:48:27.589Z,3.03
2023-02-24T01:54:43.117Z,3.10
2023-02-24T02:00:46.829Z,3.08
2023-02-24T02:06:48.981Z,3.20
2023-02-24T02:12:51.319Z,3.45
2023-02-24T02:19:23.930Z,3.80
2023-02-24T02:25:46.755Z,3.42
2023-02-24T02:32:31.727Z,2.95
2023-02-24T02:39:01.001Z,2.83
2023-02-24T02:45:33.293Z,2.90
2023-02-24T02:51:44.658Z,2.83
2023-02-24T02:57:49.122Z,3.42
2023-02-24T03:03:56.406Z,2.55
2023-02-24T03:10:06.085Z,2.40
2023-02-24T03:16:10.877Z,1.90
2023-02-24T03:22:18.977Z,2.00
2023-02-24T03:28:35.867Z,1.73
2023-02-24T03:34:49.496Z,1.88
2023-02-24T03:40:52.081Z,3.13
2023-02-24T03:46:55.787Z,2.53
2023-02-24T04:00:48.248Z,1.90
2023-02-24T04:07:02.379Z,1.52
2023-02-24T04:13:35.510Z,1.43
2023-02-24T04:19:41.584Z,1.75
2023-02-24T04:25:47.495Z,1.45
2023-02-24T04:31:55.227Z,1.42
2023-02-24T04:37:57.623Z,1.92
2023-02-24T04:43:59.474Z,1.40
2023-02-24T04:50:01.225Z,1.85
2023-02-24T04:56:09.210Z,1.30
2023-02-24T05:02:11.124Z,1.52
2023-02-24T05:08:15.897Z,1.40
2023-02-24T05:14:21.190Z,1.55
2023-02-24T05:20:59.485Z,1.27
2023-02-24T05:27:03.942Z,1.33
2023-02-24T05:33:08.225Z,1.63
2023-02-24T05:39:12.323Z,1.33
2023-02-24T05:45:14.632Z,1.00
2023-02-24T05:51:17.150Z,1.85
2023-02-24T05:57:21.405Z,1.65
2023-02-24T06:03:31.228Z,1.60
2023-02-24T06:09:34.713Z,1.95
2023-02-24T06:15:37.657Z,1.95
2023-02-24T06:21:41.696Z,1.58
2023-02-24T06:27:43.736Z,1.70
2023-02-24T06:33:45.707Z,1.70
2023-02-24T06:39:48.043Z,1.40
2023-02-24T06:45:50.352Z,1.60
2023-02-24T06:51:52.433Z,1.60
2023-02-24T06:58:04.468Z,1.67
2023-02-24T07:04:09.054Z,1.92
2023-02-24T07:10:14.566Z,2.00
2023-02-24T07:16:25.282Z,1.77
2023-02-24T07:22:27.598Z,2.25
2023-02-24T07:28:29.345Z,1.77
2023-02-24T07:34:31.984Z,1.75
2023-02-24T07:40:34.175Z,1.48
2023-02-24T07:46:36.052Z,2.10
2023-02-24T07:52:38.755Z,1.92
2023-02-24T07:58:45.422Z,2.33
2023-02-24T08:04:51.650Z,2.03
2023-02-24T08:11:03.979Z,1.95
2023-02-24T08:17:05.777Z,1.48
2023-02-24T08:23:11.241Z,1.50
2023-02-24T08:29:13.296Z,1.88
2023-02-24T08:35:19.826Z,1.48
2023-02-24T08:41:29.250Z,1.38
2023-02-24T08:47:31.263Z,1.48
2023-02-24T08:53:33.488Z,1.83
2023-02-24T08:59:48.548Z,1.60
2023-02-24T09:05:50.872Z,1.50
2023-02-24T09:11:58.266Z,1.75
2023-02-24T09:18:07.501Z,1.73
2023-02-24T09:24:12.666Z,1.90
2023-02-24T09:30:33.889Z,1.60
2023-02-24T09:36:44.952Z,2.33
2023-02-24T09:42:47.216Z,2.05
2023-02-24T09:49:05.548Z,2.25
2023-02-24T09:55:27.924Z,1.90
2023-02-24T10:02:02.285Z,1.98
2023-02-24T10:08:17.912Z,2.78
2023-02-24T10:14:43.720Z,2.38
2023-02-24T10:20:49.596Z,3.50
2023-02-24T10:27:01.273Z,2.30
2023-02-24T10:33:27.442Z,2.45
2023-02-24T10:39:33.492Z,2.13
2023-02-24T10:45:45.648Z,1.90
2023-02-24T10:51:53.318Z,2.35
2023-02-24T10:58:07.531Z,3.00
2023-02-24T11:04:33.602Z,3.00
2023-02-24T11:10:53.215Z,3.13
2023-02-24T11:17:13.922Z,3.30
2023-02-24T11:23:20.460Z,3.45
2023-02-24T11:29:28.471Z,4.07
2023-02-24T11:35:35.441Z,5.05
2023-02-24T11:41:45.689Z,5.00
2023-02-24T11:47:57.456Z,5.97
2023-02-24T11:54:15.150Z,5.55
2023-02-24T12:00:30.958Z,5.80
2023-02-24T12:06:52.047Z,5.88
2023-02-24T12:13:14.619Z,5.60
2023-02-24T12:19:23.850Z,4.38
2023-02-24T12:25:36.683Z,4.07
2023-02-24T12:31:41.814Z,4.13
2023-02-24T12:38:15.157Z,3.80
2023-02-24T12:44:38.322Z,3.65
2023-02-24T12:51:15.827Z,3.60
2023-02-24T12:57:27.619Z,3.38
2023-02-24T13:03:49.857Z,3.25
2023-02-24T13:10:18.273Z,4.03
2023-02-24T13:16:31.434Z,4.00
2023-02-24T13:22:33.725Z,3.60
2023-02-24T13:28:38.443Z,3.70
2023-02-24T13:34:45.336Z,3.50
2023-02-24T13:40:47.106Z,3.22
2023-02-24T13:47:34.331Z,3.35
2023-02-24T13:54:06.755Z,3.17
2023-02-24T14:00:22.036Z,3.42
2023-02-24T14:06:27.162Z,4.35
2023-02-24T14:12:32.203Z,4.68
2023-02-24T14:18:34.287Z,4.82
2023-02-24T14:24:36.137Z,4.97
2023-02-24T14:30:40.327Z,4.90
2023-02-24T14:36:45.543Z,5.13
2023-02-24T14:42:49.214Z,5.22
2023-02-24T14:48:56.457Z,5.55
2023-02-24T14:55:18.280Z,5.05
2023-02-24T15:01:39.759Z,5.07
2023-02-24T15:07:45.324Z,5.45
2023-02-24T15:13:55.166Z,5.40
2023-02-24T15:19:57.080Z,5.20
2023-02-24T15:25:59.488Z,6.03
2023-02-24T15:32:07.285Z,6.65
2023-02-24T15:38:25.109Z,5.95
2023-02-24T15:44:32.501Z,6.22
2023-02-24T15:50:34.272Z,6.22
2023-02-24T15:56:36.912Z,5.20
2023-02-24T16:02:39.387Z,5.07
2023-02-24T16:08:44.961Z,3.92
2023-02-24T16:14:48.515Z,4.15
2023-02-24T16:20:55.603Z,5.10
2023-02-24T16:26:57.707Z,5.07
2023-02-24T16:33:01.332Z,5.03
2023-02-24T16:39:05.162Z,5.40
2023-02-24T16:45:07.658Z,6.40
2023-02-24T16:51:11.377Z,6.80
2023-02-24T16:57:13.166Z,7.03
2023-02-24T17:03:30.542Z,6.70
2023-02-24T17:09:33.600Z,8.27
2023-02-24T17:15:35.421Z,6.93
2023-02-24T17:21:42.334Z,6.03
2023-02-24T17:27:47.194Z,5.80
2023-02-24T17:33:48.993Z,6.40
2023-02-24T17:39:50.783Z,4.63
2023-02-24T17:45:53.181Z,4.45
2023-02-24T17:51:55.231Z,2.78
2023-02-24T17:57:59.404Z,2.30
2023-02-24T18:04:01.141Z,2.20
2023-02-24T18:10:03.934Z,1.40
2023-02-24T18:16:14.050Z,0.90
2023-02-24T18:22:16.455Z,1.23
2023-02-24T18:28:18.359Z,1.00
2023-02-24T18:34:20.909Z,1.40
2023-02-24T18:40:25.925Z,1.50
2023-02-24T18:46:28.847Z,2.03
2023-02-24T18:52:32.788Z,1.85
2023-02-24T18:58:37.487Z,1.97
2023-02-24T19:04:40.156Z,1.83
2023-02-24T19:10:44.240Z,2.38
2023-02-24T19:16:47.041Z,2.03
2023-02-24T19:22:51.795Z,1.85
2023-02-24T19:28:55.476Z,2.67
2023-02-24T19:34:58.175Z,3.23
2023-02-24T19:41:00.280Z,2.22
2023-02-24T19:47:02.209Z,2.10
2023-02-24T19:53:04.162Z,3.70
2023-02-24T19:59:07.974Z,2.13
2023-02-24T20:05:10.505Z,2.70
2023-02-24T20:11:12.383Z,2.00
2023-02-24T20:17:16.614Z,1.98
2023-02-24T20:23:22.348Z,2.08
2023-02-24T20:29:24.550Z,2.70
2023-02-24T20:35:28.369Z,2.17
2023-02-24T20:41:30.597Z,2.83
2023-02-24T20:47:32.548Z,2.78
2023-02-24T20:53:47.861Z,2.08
2023-02-24T21:00:03.571Z,2.58
2023-02-24T21:06:10.208Z,2.70
2023-02-24T21:12:12.624Z,2.75
2023-02-24T21:18:15.352Z,2.55
2023-02-24T21:24:18.405Z,2.60
2023-02-24T21:30:21.586Z,2.75
2023-02-24T21:36:26.433Z,2.15
2023-02-24T21:42:28.839Z,2.03
2023-02-24T21:48:31.598Z,3.38
2023-02-24T21:54:34.540Z,2.53
2023-02-24T22:00:37.065Z,3.85
2023-02-24T22:06:41.374Z,2.63
2023-02-24T22:12:43.736Z,2.80
2023-02-24T22:18:47.030Z,2.38
2023-02-24T22:24:51.588Z,4.45
2023-02-24T22:30:58.584Z,3.08
2023-02-24T22:37:01.263Z,3.63
2023-02-24T22:43:05.376Z,2.30
2023-02-24T22:49:07.879Z,2.65
2023-02-24T22:55:10.692Z,2.35
2023-02-24T23:01:17.305Z,2.08
2023-02-24T23:07:20.376Z,2.28
2023-02-24T23:13:22.648Z,2.75
2023-02-24T23:19:24.842Z,2.58
2023-02-24T23:25:26.869Z,2.47
2023-02-24T23:31:29.890Z,1.70
2023-02-24T23:37:32.899Z,2.78
2023-02-24T23:43:35.022Z,1.98
2023-02-24T23:49:47.828Z,2.65
2023-02-24T23:55:50.851Z,2.60
